West Point, Mississippi
Current Conditions -  °F | °C
As of 8:35 PM on Tuesday 21 Oct 2014 (Local Time) from KGTR Reporting Station
Clear Clear  
Wind Chill: 61°   Ceiling: Unl
Heat Index: 61°   Visibility: 10mi
Dew Point: 48°   Wind: 6mph
Humidity: 63%   Direction: 360°N
Pressure: 30.04"   Gusts: NA
Location:  33.61°N, 88.65°W
Report Text: KGTR 220135Z 36005KT 10SM CLR 16/09 A3004 RMK AO1
Loading
Personal Weather Stations






























Interactive Weather Map
Tropical Storm Tracking
New forecast layout! Learn more

10-Day Weather Forecast

Advertisements
Track Severe Weather on mobile